Time;durP1;ratioP1;P1;durP2;ratioP2;P2;SDS_P1;SDS_P2;PMS_P1;PMS_P2;Temp;Humidity;BMP_temperature;BMP_pressure;BME280_temperature;BME280_humidity;BME280_pressure;Samples;Min_cycle;Max_cycle;Signal;HPM_P1;HPM_P2
2022/05/14 00:00:46;;;;;;;;;;;12.80;96.20;;;;;;2604247;54;19935;31
2022/05/14 00:03:22;;;;;;;;;;;12.80;96.20;;;;;;2603931;54;20012;31
2022/05/14 00:05:59;;;;;;;;;;;12.80;96.50;;;;;;2622486;46;20770;31
2022/05/14 00:08:37;;;;;;;;;;;12.70;97.00;;;;;;2622534;46;19942;31
2022/05/14 00:13:58;;;;;;;;;;;12.70;97.10;;;;;;2603871;54;19934;31
2022/05/14 00:16:33;;;;;;;;;;;12.70;97.10;;;;;;2702596;39;20984;31
2022/05/14 00:19:09;;;;;;;;;;;12.60;97.60;;;;;;2603488;54;19965;31
2022/05/14 00:21:46;;;;;;;;;;;12.60;97.60;;;;;;2604258;54;20099;31
2022/05/14 00:24:22;;;;;;;;;;;12.60;97.30;;;;;;2622516;46;19935;31
2022/05/14 00:26:55;;;;;;;;;;;12.60;97.60;;;;;;2702428;39;20950;31
2022/05/14 00:29:30;;;;;;;;;;;12.60;97.60;;;;;;2603850;54;20807;31
2022/05/14 00:32:05;;;;;;;;;;;12.50;98.00;;;;;;2603973;54;20458;31
2022/05/14 00:34:40;;;;;;;;;;;12.50;98.10;;;;;;2773848;31;21275;31
2022/05/14 00:37:17;;;;;;;;;;;12.50;98.40;;;;;;2603961;54;19935;31
2022/05/14 00:39:55;;;;;;;;;;;12.40;99.00;;;;;;2603788;54;19993;31
2022/05/14 00:42:31;;;;;;;;;;;12.30;99.20;;;;;;2604075;54;20785;31
2022/05/14 00:45:08;;;;;;;;;;;12.20;99.80;;;;;;2603701;54;20021;31
2022/05/14 00:47:45;;;;;;;;;;;12.20;99.60;;;;;;2622023;46;20841;31
2022/05/14 00:50:20;;;;;;;;;;;12.20;99.70;;;;;;2702435;39;20381;31
2022/05/14 00:52:57;;;;;;;;;;;12.10;99.90;;;;;;2702484;39;20409;31
2022/05/14 00:55:36;;;;;;;;;;;12.10;99.90;;;;;;2622203;46;19935;31
2022/05/14 00:58:10;;;;;;;;;;;12.10;99.90;;;;;;2603899;54;19950;31
2022/05/14 01:00:44;;;;;;;;;;;12.10;99.90;;;;;;2622746;46;19934;31
2022/05/14 01:03:18;;;;;;;;;;;12.10;99.90;;;;;;2603857;54;19935;31
2022/05/14 01:05:53;;;;;;;;;;;12.00;99.90;;;;;;2620573;46;22313;31
2022/05/14 01:08:29;;;;;;;;;;;12.00;99.90;;;;;;2617832;46;20743;31
2022/05/14 01:11:06;;;;;;;;;;;11.90;99.90;;;;;;2603659;54;19935;31
2022/05/14 01:13:41;;;;;;;;;;;11.90;99.90;;;;;;2622479;46;19938;31
2022/05/14 01:16:16;;;;;;;;;;;11.90;99.90;;;;;;2603620;54;19973;31
2022/05/14 01:18:51;;;;;;;;;;;11.80;99.90;;;;;;2603584;54;20017;31
2022/05/14 01:21:26;;;;;;;;;;;11.80;99.90;;;;;;2603662;54;20690;31
2022/05/14 01:26:51;;;;;;;;;;;11.70;99.90;;;;;;2603410;54;19935;31
2022/05/14 01:29:29;;;;;;;;;;;11.60;99.90;;;;;;2603932;54;20062;31
2022/05/14 01:32:10;;;;;;;;;;;11.60;99.90;;;;;;2603843;54;19993;31
2022/05/14 01:34:47;;;;;;;;;;;11.50;99.90;;;;;;2602812;54;20807;31
2022/05/14 01:37:24;;;;;;;;;;;11.50;99.90;;;;;;2603297;54;19934;31
2022/05/14 01:39:59;;;;;;;;;;;11.50;99.90;;;;;;2622144;46;19942;31
2022/05/14 01:42:37;;;;;;;;;;;11.40;99.90;;;;;;2603950;54;20812;31
2022/05/14 01:45:16;;;;;;;;;;;11.40;99.90;;;;;;2602752;54;19943;31
2022/05/14 01:47:53;;;;;;;;;;;11.40;99.90;;;;;;2603708;54;19934;31
2022/05/14 01:50:33;;;;;;;;;;;11.30;99.90;;;;;;2621899;46;20796;31
2022/05/14 01:53:13;;;;;;;;;;;11.20;99.90;;;;;;2603602;54;20775;31
2022/05/14 01:55:50;;;;;;;;;;;11.20;99.90;;;;;;2603591;54;20017;31
2022/05/14 02:01:12;;;;;;;;;;;11.10;99.90;;;;;;2603854;54;19934;31
2022/05/14 02:03:50;;;;;;;;;;;11.10;99.90;;;;;;2603069;54;20804;31
2022/05/14 02:06:27;;;;;;;;;;;11.10;99.90;;;;;;2772749;31;21223;31
2022/05/14 02:09:04;;;;;;;;;;;11.00;99.90;;;;;;2602790;54;20712;31
2022/05/14 02:11:39;;;;;;;;;;;11.00;99.90;;;;;;2622418;46;20765;31
2022/05/14 02:14:30;;;;;;;;;;;10.90;99.90;;;;;;2603647;54;19938;31
2022/05/14 02:17:07;;;;;;;;;;;10.90;99.90;;;;;;2603400;54;19935;31
2022/05/14 02:19:43;;;;;;;;;;;10.90;99.90;;;;;;2614595;46;19946;31
2022/05/14 02:22:19;;;;;;;;;;;10.90;99.90;;;;;;2602806;54;19962;31
2022/05/14 02:24:54;;;;;;;;;;;10.90;99.90;;;;;;2603530;54;20740;31
2022/05/14 02:27:28;;;;;;;;;;;10.80;99.90;;;;;;2609662;47;20664;31
2022/05/14 02:30:07;;;;;;;;;;;10.80;99.90;;;;;;2603428;54;19935;31
2022/05/14 02:32:42;;;;;;;;;;;10.70;99.90;;;;;;2603703;54;20466;31
2022/05/14 02:35:20;;;;;;;;;;;10.70;99.90;;;;;;2622197;47;19935;31
2022/05/14 02:37:55;;;;;;;;;;;10.70;99.90;;;;;;2603408;54;20531;31
2022/05/14 02:40:30;;;;;;;;;;;10.60;99.90;;;;;;2602879;54;19964;31
2022/05/14 02:43:08;;;;;;;;;;;10.50;99.90;;;;;;2711615;39;20360;31
2022/05/14 02:45:42;;;;;;;;;;;10.50;99.90;;;;;;2602667;54;19942;31
2022/05/14 02:48:18;;;;;;;;;;;10.50;99.90;;;;;;2621147;47;19949;31
2022/05/14 02:50:55;;;;;;;;;;;10.40;99.90;;;;;;2603381;54;19950;31
2022/05/14 02:53:32;;;;;;;;;;;10.40;99.90;;;;;;2604176;54;20772;31
2022/05/14 02:56:07;;;;;;;;;;;10.40;99.90;;;;;;2623029;46;20065;31
2022/05/14 03:01:29;;;;;;;;;;;10.40;99.90;;;;;;2604230;54;19935;31
2022/05/14 03:04:07;;;;;;;;;;;10.30;99.90;;;;;;2622637;46;20727;31
2022/05/14 03:06:42;;;;;;;;;;;10.20;99.90;;;;;;2603587;54;20493;31
2022/05/14 03:09:20;;;;;;;;;;;10.20;99.90;;;;;;2604304;54;20753;31
2022/05/14 03:11:56;;;;;;;;;;;10.20;99.90;;;;;;2604215;54;19931;31
2022/05/14 03:14:29;;;;;;;;;;;10.20;99.90;;;;;;2604195;54;21224;31
2022/05/14 03:17:05;;;;;;;;;;;10.20;99.90;;;;;;2622405;46;19966;31
2022/05/14 03:19:40;;;;;;;;;;;10.10;99.90;;;;;;2622346;46;20755;31
2022/05/14 03:22:15;;;;;;;;;;;10.10;99.90;;;;;;2604185;54;19946;31
2022/05/14 03:24:54;;;;;;;;;;;10.10;99.90;;;;;;2604341;54;19942;31
2022/05/14 03:27:29;;;;;;;;;;;10.10;99.90;;;;;;2604163;54;19935;31
2022/05/14 03:30:03;;;;;;;;;;;10.10;99.90;;;;;;2604085;54;19935;31
2022/05/14 03:32:38;;;;;;;;;;;10.10;99.90;;;;;;2604055;54;19939;31
2022/05/14 03:35:12;;;;;;;;;;;10.10;99.90;;;;;;2604068;54;19989;31
2022/05/14 03:37:48;;;;;;;;;;;10.10;99.90;;;;;;2604023;54;19987;31
2022/05/14 03:40:25;;;;;;;;;;;10.10;99.90;;;;;;2604055;54;20792;31
2022/05/14 03:43:04;;;;;;;;;;;10.20;99.90;;;;;;2604090;54;20024;31
2022/05/14 03:45:43;;;;;;;;;;;10.30;99.90;;;;;;2604331;54;19942;31
2022/05/14 03:48:17;;;;;;;;;;;10.40;99.90;;;;;;2622646;46;19934;31
2022/05/14 03:50:53;;;;;;;;;;;10.50;99.90;;;;;;2701919;39;20401;31
2022/05/14 03:53:28;;;;;;;;;;;10.70;99.90;;;;;;2622801;46;19957;31
2022/05/14 03:56:03;;;;;;;;;;;10.80;99.90;;;;;;2622544;46;19934;31
2022/05/14 03:58:40;;;;;;;;;;;10.90;99.90;;;;;;2604194;54;19934;31
2022/05/14 04:01:15;;;;;;;;;;;11.00;99.90;;;;;;2603815;54;20002;31
2022/05/14 04:03:50;;;;;;;;;;;11.20;99.90;;;;;;2603879;54;19941;31
2022/05/14 04:06:26;;;;;;;;;;;11.40;99.90;;;;;;2604020;54;19934;31
2022/05/14 04:09:07;;;;;;;;;;;11.60;99.90;;;;;;2622598;46;19946;31
2022/05/14 04:11:43;;;;;;;;;;;11.70;99.90;;;;;;2603842;54;19935;31
2022/05/14 04:14:23;;;;;;;;;;;11.90;99.90;;;;;;2720937;39;20464;31
2022/05/14 04:17:01;;;;;;;;;;;12.10;99.90;;;;;;2603960;54;20505;31
2022/05/14 04:19:57;;;;;;;;;;;12.30;99.90;;;;;;2622729;46;20027;31
2022/05/14 04:22:32;;;;;;;;;;;12.50;99.90;;;;;;2622532;46;19981;31
2022/05/14 04:25:11;;;;;;;;;;;12.60;99.90;;;;;;2603908;54;20810;31
2022/05/14 04:27:49;;;;;;;;;;;12.80;99.90;;;;;;2603884;54;19947;31
2022/05/14 04:30:29;;;;;;;;;;;13.00;99.90;;;;;;2603824;54;19982;31
2022/05/14 04:33:04;;;;;;;;;;;13.10;99.90;;;;;;2604040;54;19935;31
2022/05/14 04:35:42;;;;;;;;;;;13.20;99.90;;;;;;2622440;46;19946;31
2022/05/14 04:38:17;;;;;;;;;;;13.40;99.90;;;;;;2603846;54;20812;31
2022/05/14 04:40:52;;;;;;;;;;;13.60;99.90;;;;;;2604074;54;20696;31
2022/05/14 04:43:27;;;;;;;;;;;13.80;99.90;;;;;;2622579;46;20748;31
2022/05/14 04:46:08;;;;;;;;;;;13.90;99.90;;;;;;2603763;54;20493;31
2022/05/14 04:48:43;;;;;;;;;;;14.10;99.90;;;;;;2603911;54;20730;31
2022/05/14 04:51:18;;;;;;;;;;;14.30;99.90;;;;;;2619894;46;19943;31
2022/05/14 04:53:56;;;;;;;;;;;14.40;99.90;;;;;;2622565;46;19941;31
2022/05/14 04:56:31;;;;;;;;;;;14.60;99.90;;;;;;2792509;31;21235;31
2022/05/14 04:59:07;;;;;;;;;;;14.90;99.90;;;;;;2603806;54;20017;31
2022/05/14 05:03:16;;;;;;;;;;;15.10;99.90;;;;;;2603128;54;20517;31
2022/05/14 05:04:39;;;;;;;;;;;15.40;99.90;;;;;;2622486;46;19935;31
2022/05/14 05:07:13;;;;;;;;;;;15.70;99.90;;;;;;2603660;54;20803;31
2022/05/14 05:09:53;;;;;;;;;;;16.00;99.90;;;;;;2622401;46;19942;31
2022/05/14 05:12:28;;;;;;;;;;;16.20;99.90;;;;;;2603794;54;20484;31
2022/05/14 05:15:06;;;;;;;;;;;16.50;99.90;;;;;;2702285;39;20424;31
2022/05/14 05:17:45;;;;;;;;;;;16.70;99.90;;;;;;2622333;46;19935;31
2022/05/14 05:20:19;;;;;;;;;;;16.90;99.90;;;;;;2603891;54;19935;31
2022/05/14 05:22:56;;;;;;;;;;;17.10;99.90;;;;;;2622479;46;19941;31
2022/05/14 05:25:31;;;;;;;;;;;17.30;99.90;;;;;;2603595;54;20794;31
2022/05/14 05:28:07;;;;;;;;;;;17.50;99.90;;;;;;2622439;46;19935;31
2022/05/14 05:30:41;;;;;;;;;;;17.80;99.90;;;;;;2702241;39;20394;31
2022/05/14 05:33:20;;;;;;;;;;;17.90;99.90;;;;;;2602973;54;19942;31
2022/05/14 05:35:55;;;;;;;;;;;18.00;99.90;;;;;;2615898;46;20767;31
2022/05/14 05:38:31;;;;;;;;;;;18.10;99.90;;;;;;2702272;39;21331;31
2022/05/14 05:41:07;;;;;;;;;;;18.30;99.90;;;;;;2622289;46;20800;31
2022/05/14 05:43:42;;;;;;;;;;;18.50;99.90;;;;;;2603656;54;19997;31
2022/05/14 05:46:17;;;;;;;;;;;18.60;99.90;;;;;;2621928;46;20013;31
2022/05/14 05:48:56;;;;;;;;;;;18.70;99.70;;;;;;2603075;54;20051;31
2022/05/14 05:51:32;;;;;;;;;;;18.90;99.40;;;;;;2603456;54;19950;31
2022/05/14 05:56:56;;;;;;;;;;;19.30;98.80;;;;;;2622301;46;19941;31
2022/05/14 05:59:31;;;;;;;;;;;19.50;97.80;;;;;;2612728;46;20797;31
2022/05/14 06:02:06;;;;;;;;;;;19.60;97.80;;;;;;2622235;46;19981;31
2022/05/14 06:04:45;;;;;;;;;;;19.60;97.50;;;;;;2603644;54;19939;31
2022/05/14 06:07:19;;;;;;;;;;;19.50;97.50;;;;;;2603546;54;19939;31
2022/05/14 06:09:57;;;;;;;;;;;19.40;97.70;;;;;;2603471;54;19990;31
2022/05/14 06:12:31;;;;;;;;;;;19.30;97.40;;;;;;2773248;31;21235;31
2022/05/14 06:15:08;;;;;;;;;;;19.10;97.70;;;;;;2602887;54;20563;31
2022/05/14 06:17:46;;;;;;;;;;;19.00;97.50;;;;;;2622181;46;20760;31
2022/05/14 06:20:24;;;;;;;;;;;19.10;97.80;;;;;;2602816;54;20721;31
2022/05/14 06:23:01;;;;;;;;;;;19.10;97.70;;;;;;2602829;54;20019;31
2022/05/14 06:25:39;;;;;;;;;;;19.00;97.90;;;;;;2619840;47;19941;31
2022/05/14 06:28:20;;;;;;;;;;;19.10;98.10;;;;;;2602489;54;19950;31
2022/05/14 06:30:56;;;;;;;;;;;19.40;98.20;;;;;;2602216;54;19942;31
2022/05/14 06:33:33;;;;;;;;;;;19.50;97.70;;;;;;2602296;54;20010;31
2022/05/14 06:36:09;;;;;;;;;;;19.70;97.80;;;;;;2702370;39;21042;31
2022/05/14 06:38:43;;;;;;;;;;;20.00;96.50;;;;;;2621436;47;20840;31
2022/05/14 06:41:18;;;;;;;;;;;19.90;96.10;;;;;;2621728;47;19935;31
2022/05/14 06:43:53;;;;;;;;;;;20.10;96.10;;;;;;2619163;47;19993;31
2022/05/14 06:46:28;;;;;;;;;;;20.40;96.10;;;;;;2701731;39;20387;31
2022/05/14 06:49:07;;;;;;;;;;;20.80;95.70;;;;;;2603437;54;19935;31
2022/05/14 06:51:44;;;;;;;;;;;21.10;95.20;;;;;;2603321;54;19934;31
2022/05/14 06:54:22;;;;;;;;;;;21.50;95.00;;;;;;2621926;47;19935;31
2022/05/14 06:56:56;;;;;;;;;;;21.90;95.00;;;;;;2622335;47;19934;31
2022/05/14 06:59:33;;;;;;;;;;;22.10;94.50;;;;;;2603793;54;19935;31
2022/05/14 07:02:07;;;;;;;;;;;22.30;93.80;;;;;;2621958;47;19934;31
2022/05/14 07:07:29;;;;;;;;;;;22.70;93.30;;;;;;2603547;54;20737;31
2022/05/14 07:10:03;;;;;;;;;;;23.00;93.10;;;;;;2680592;39;20250;31
2022/05/14 07:12:37;;;;;;;;;;;23.20;91.60;;;;;;2603516;54;20319;31
2022/05/14 07:15:15;;;;;;;;;;;23.40;91.80;;;;;;2604711;47;19989;31
2022/05/14 07:17:51;;;;;;;;;;;23.40;91.10;;;;;;2603195;54;20457;31
2022/05/14 07:20:26;;;;;;;;;;;23.50;91.20;;;;;;2622031;47;20025;31
2022/05/14 07:23:03;;;;;;;;;;;23.60;90.40;;;;;;2603256;54;20450;31
2022/05/14 07:25:37;;;;;;;;;;;23.80;89.90;;;;;;2705501;39;20398;31
2022/05/14 07:28:12;;;;;;;;;;;23.80;87.80;;;;;;2621927;47;19941;31
2022/05/14 07:30:47;;;;;;;;;;;23.60;87.70;;;;;;2622049;47;19938;31
2022/05/14 07:33:22;;;;;;;;;;;23.30;87.40;;;;;;2622074;47;19941;31
2022/05/14 07:35:59;;;;;;;;;;;23.20;87.10;;;;;;2603795;54;19934;31
2022/05/14 07:38:36;;;;;;;;;;;23.30;88.80;;;;;;2703031;39;20963;31
2022/05/14 07:41:11;;;;;;;;;;;23.20;87.10;;;;;;2604466;54;19935;31
2022/05/14 07:43:46;;;;;;;;;;;23.20;87.50;;;;;;2604231;54;20501;31
2022/05/14 07:46:22;;;;;;;;;;;23.60;87.90;;;;;;2622572;46;20469;31
2022/05/14 07:48:58;;;;;;;;;;;23.80;89.00;;;;;;2604054;54;19946;31
2022/05/14 07:51:33;;;;;;;;;;;23.90;87.10;;;;;;2702716;39;20373;31
2022/05/14 07:54:12;;;;;;;;;;;24.00;86.90;;;;;;2604288;54;20416;31
2022/05/14 07:56:48;;;;;;;;;;;24.00;88.40;;;;;;2604466;54;19934;31
2022/05/14 07:59:29;;;;;;;;;;;23.90;88.80;;;;;;2604046;54;19941;31
2022/05/14 08:02:05;;;;;;;;;;;23.70;88.40;;;;;;2622980;46;19935;31
2022/05/14 08:04:42;;;;;;;;;;;23.80;87.00;;;;;;2604083;54;19935;31
2022/05/14 08:07:16;;;;;;;;;;;23.90;87.40;;;;;;2774297;31;21089;31
2022/05/14 08:10:01;;;;;;;;;;;24.10;87.80;;;;;;2721171;39;20455;31
2022/05/14 08:12:36;;;;;;;;;;;24.20;85.20;;;;;;2622355;46;19935;31
2022/05/14 08:15:13;;;;;;;;;;;24.00;85.20;;;;;;2622627;46;20013;31
2022/05/14 08:17:49;;;;;;;;;;;24.00;85.30;;;;;;2603140;54;20657;31
2022/05/14 08:20:23;;;;;;;;;;;24.10;84.90;;;;;;2622624;46;19941;31
2022/05/14 08:25:51;;;;;;;;;;;24.30;85.10;;;;;;2603937;54;20485;31
2022/05/14 08:28:30;;;;;;;;;;;24.60;85.60;;;;;;2622422;46;19941;31
2022/05/14 08:31:04;;;;;;;;;;;24.70;84.50;;;;;;2622619;46;20792;31
2022/05/14 08:33:40;;;;;;;;;;;24.50;83.90;;;;;;2622679;46;19942;31
2022/05/14 08:36:14;;;;;;;;;;;24.60;84.70;;;;;;2622025;46;20847;31
2022/05/14 08:38:49;;;;;;;;;;;24.60;82.10;;;;;;2603855;54;19934;31
2022/05/14 08:41:26;;;;;;;;;;;24.60;80.70;;;;;;2622333;46;20017;31
2022/05/14 08:44:03;;;;;;;;;;;24.50;83.00;;;;;;2604069;54;19934;31
2022/05/14 08:46:40;;;;;;;;;;;24.60;82.40;;;;;;2621998;46;19935;31
2022/05/14 08:49:17;;;;;;;;;;;24.60;82.80;;;;;;2622068;46;19957;31
2022/05/14 08:51:52;;;;;;;;;;;24.80;83.40;;;;;;2603701;54;20661;31
2022/05/14 08:54:26;;;;;;;;;;;24.80;82.10;;;;;;2603797;54;20845;31
2022/05/14 08:57:06;;;;;;;;;;;24.60;80.40;;;;;;2602999;54;19950;31
2022/05/14 08:59:55;;;;;;;;;;;24.40;81.80;;;;;;2622518;46;20477;31
2022/05/14 09:02:31;;;;;;;;;;;24.30;82.80;;;;;;2603685;54;19997;31
2022/05/14 09:05:08;;;;;;;;;;;24.00;82.40;;;;;;2604096;54;20761;31
2022/05/14 09:07:43;;;;;;;;;;;23.60;82.80;;;;;;2622239;46;19946;31
2022/05/14 09:10:23;;;;;;;;;;;23.30;83.70;;;;;;2792427;31;21263;31
2022/05/14 09:13:01;;;;;;;;;;;23.10;85.30;;;;;;2622539;46;19941;31
2022/05/14 09:15:36;;;;;;;;;;;22.90;85.50;;;;;;2685975;39;20835;31
2022/05/14 09:18:11;;;;;;;;;;;22.90;84.90;;;;;;2622381;46;19986;31
2022/05/14 09:20:44;;;;;;;;;;;23.00;85.30;;;;;;2702594;39;22118;31
2022/05/14 09:23:27;;;;;;;;;;;22.90;84.00;;;;;;2622238;46;19934;31
2022/05/14 09:26:04;;;;;;;;;;;22.80;84.70;;;;;;2622323;46;19935;31
2022/05/14 09:28:44;;;;;;;;;;;22.70;85.20;;;;;;2603715;54;19997;31
2022/05/14 09:31:25;;;;;;;;;;;22.50;84.70;;;;;;2603778;54;20540;31
2022/05/14 09:34:04;;;;;;;;;;;22.50;86.00;;;;;;2602987;47;20521;31
2022/05/14 09:36:48;;;;;;;;;;;22.40;85.50;;;;;;2603770;54;19941;31
2022/05/14 09:39:23;;;;;;;;;;;22.30;86.10;;;;;;2621962;46;19990;31
2022/05/14 09:42:01;;;;;;;;;;;22.30;86.90;;;;;;2621993;46;20996;31
2022/05/14 09:44:47;;;;;;;;;;;22.40;87.80;;;;;;2707682;39;20417;31
2022/05/14 09:47:27;;;;;;;;;;;22.50;88.60;;;;;;2603717;54;19935;31
2022/05/14 09:50:02;;;;;;;;;;;22.50;86.70;;;;;;2603709;54;19935;31
2022/05/14 09:52:38;;;;;;;;;;;22.70;87.70;;;;;;2622316;46;19934;31
2022/05/14 09:55:13;;;;;;;;;;;22.90;85.30;;;;;;2621871;46;20742;31
2022/05/14 09:57:51;;;;;;;;;;;23.10;85.10;;;;;;2602895;54;20033;31
2022/05/14 10:00:33;;;;;;;;;;;23.40;85.40;;;;;;2603417;54;20772;31
2022/05/14 10:03:14;;;;;;;;;;;23.60;83.00;;;;;;2603510;54;19942;31
2022/05/14 10:05:54;;;;;;;;;;;23.70;83.40;;;;;;2622022;46;19941;31
2022/05/14 10:08:39;;;;;;;;;;;23.50;83.60;;;;;;2621828;46;20832;31
2022/05/14 10:11:15;;;;;;;;;;;23.30;84.50;;;;;;2603494;54;19941;31
2022/05/14 10:13:52;;;;;;;;;;;23.20;84.10;;;;;;2622318;46;19942;31
2022/05/14 10:16:29;;;;;;;;;;;23.30;86.30;;;;;;2603799;54;19935;31
2022/05/14 10:19:12;;;;;;;;;;;23.60;83.80;;;;;;2603678;54;19934;31
2022/05/14 10:21:48;;;;;;;;;;;23.40;83.20;;;;;;2622560;46;19935;31
2022/05/14 10:27:14;;;;;;;;;;;22.90;84.40;;;;;;2702090;39;20959;31
2022/05/14 10:29:53;;;;;;;;;;;22.60;85.00;;;;;;2603205;54;20771;31
2022/05/14 10:32:29;;;;;;;;;;;22.60;86.80;;;;;;2602594;54;21298;31
2022/05/14 10:35:10;;;;;;;;;;;22.70;87.70;;;;;;2602454;54;19938;31
2022/05/14 10:37:48;;;;;;;;;;;23.00;87.30;;;;;;2602807;54;21323;31
2022/05/14 10:40:24;;;;;;;;;;;23.40;86.10;;;;;;2618912;47;20660;31
2022/05/14 10:43:11;;;;;;;;;;;23.40;84.60;;;;;;2622210;47;19934;31
2022/05/14 10:45:49;;;;;;;;;;;23.30;84.40;;;;;;2621564;47;19934;31
2022/05/14 10:48:30;;;;;;;;;;;23.10;85.20;;;;;;2603463;54;20014;31
2022/05/14 10:51:09;;;;;;;;;;;22.90;84.20;;;;;;2621973;47;19978;31
2022/05/14 10:53:47;;;;;;;;;;;22.70;84.30;;;;;;2622281;47;19938;31
2022/05/14 10:56:24;;;;;;;;;;;22.50;85.10;;;;;;2720361;39;21329;31
2022/05/14 10:59:26;;;;;;;;;;;22.40;84.30;;;;;;2613090;46;20014;31
2022/05/14 11:02:05;;;;;;;;;;;22.40;86.20;;;;;;2603197;54;19986;31
2022/05/14 11:04:47;;;;;;;;;;;22.60;86.80;;;;;;2610815;47;19997;31
2022/05/14 11:07:29;;;;;;;;;;;22.90;85.60;;;;;;2603324;54;20790;31
2022/05/14 11:10:22;;;;;;;;;;;23.00;86.20;;;;;;2621991;47;19941;31
2022/05/14 11:12:57;;;;;;;;;;;23.20;84.60;;;;;;2607307;46;19994;31
2022/05/14 11:15:32;;;;;;;;;;;23.30;84.90;;;;;;2604013;54;19946;31
2022/05/14 11:18:08;;;;;;;;;;;23.10;84.60;;;;;;2622636;46;19935;31
2022/05/14 11:20:44;;;;;;;;;;;23.00;84.30;;;;;;2703025;39;20824;31
2022/05/14 11:23:19;;;;;;;;;;;22.90;84.90;;;;;;2622418;46;19935;31
2022/05/14 11:25:56;;;;;;;;;;;22.80;84.70;;;;;;2774180;31;20505;31
2022/05/14 11:28:35;;;;;;;;;;;22.90;85.50;;;;;;2603402;54;20563;31
2022/05/14 11:31:14;;;;;;;;;;;23.10;85.50;;;;;;2603220;54;19935;31
2022/05/14 11:33:48;;;;;;;;;;;23.40;85.10;;;;;;2611547;46;19989;31
2022/05/14 11:36:26;;;;;;;;;;;23.60;83.80;;;;;;2604078;54;19962;31
2022/05/14 11:39:09;;;;;;;;;;;23.70;83.80;;;;;;2604158;54;21398;31
2022/05/14 11:41:43;;;;;;;;;;;23.80;82.90;;;;;;2604063;54;20002;31
2022/05/14 11:44:35;;;;;;;;;;;23.70;81.90;;;;;;2604334;54;19993;31
2022/05/14 11:47:23;;;;;;;;;;;23.60;83.20;;;;;;2604088;54;20009;31
2022/05/14 11:50:00;;;;;;;;;;;23.60;84.00;;;;;;2622917;46;19935;31
2022/05/14 11:52:40;;;;;;;;;;;23.60;83.10;;;;;;2603338;54;20678;31
2022/05/14 11:55:16;;;;;;;;;;;23.40;81.60;;;;;;2715010;39;21220;31
2022/05/14 11:57:50;;;;;;;;;;;23.40;82.10;;;;;;2604138;54;20722;31
2022/05/14 12:00:28;;;;;;;;;;;23.20;82.70;;;;;;2622691;46;20887;31
2022/05/14 12:03:06;;;;;;;;;;;23.20;82.50;;;;;;2702030;39;21130;31
2022/05/14 12:05:43;;;;;;;;;;;23.10;82.50;;;;;;2604102;54;19934;31
2022/05/14 12:08:33;;;;;;;;;;;23.10;83.20;;;;;;2622393;46;19985;31
2022/05/14 12:11:12;;;;;;;;;;;23.10;84.20;;;;;;2603856;54;19935;31
2022/05/14 12:13:48;;;;;;;;;;;23.10;84.50;;;;;;2622475;46;19941;31
2022/05/14 12:16:29;;;;;;;;;;;23.00;84.00;;;;;;2622569;46;19942;31
2022/05/14 12:19:09;;;;;;;;;;;23.00;85.10;;;;;;2622298;46;20805;31
2022/05/14 12:21:44;;;;;;;;;;;22.80;83.60;;;;;;2603922;54;19986;31
2022/05/14 12:24:22;;;;;;;;;;;22.70;84.20;;;;;;2603927;54;20037;31
2022/05/14 12:26:56;;;;;;;;;;;22.50;85.00;;;;;;2604096;54;19941;31
2022/05/14 12:29:31;;;;;;;;;;;22.60;84.60;;;;;;2603408;54;19941;31
2022/05/14 12:34:59;;;;;;;;;;;22.60;83.50;;;;;;2604058;54;19939;31
2022/05/14 12:37:36;;;;;;;;;;;22.60;83.70;;;;;;2604317;54;19989;31
2022/05/14 12:40:20;;;;;;;;;;;22.80;83.80;;;;;;2603840;54;19939;31
2022/05/14 12:42:55;;;;;;;;;;;22.90;82.90;;;;;;2622439;46;19986;31
2022/05/14 12:45:37;;;;;;;;;;;23.00;83.40;;;;;;2603169;54;19942;31
2022/05/14 12:48:14;;;;;;;;;;;23.20;82.80;;;;;;2604495;46;20650;31
2022/05/14 12:50:57;;;;;;;;;;;23.30;82.40;;;;;;2603586;54;20773;31
2022/05/14 12:53:38;;;;;;;;;;;23.40;81.80;;;;;;2603603;46;19942;31
2022/05/14 12:56:14;;;;;;;;;;;23.40;81.60;;;;;;2773988;31;21010;31
2022/05/14 12:58:49;;;;;;;;;;;23.30;80.40;;;;;;2702504;39;20271;31
2022/05/14 13:01:24;;;;;;;;;;;23.10;80.70;;;;;;2603100;54;19949;31
2022/05/14 13:04:01;;;;;;;;;;;22.90;80.40;;;;;;2622366;46;20794;31
2022/05/14 13:06:39;;;;;;;;;;;22.70;81.50;;;;;;2603756;54;20752;31
2022/05/14 13:09:17;;;;;;;;;;;22.70;82.90;;;;;;2721104;39;21021;31
2022/05/14 13:11:54;;;;;;;;;;;22.80;82.50;;;;;;2603024;54;20028;31
2022/05/14 13:14:30;;;;;;;;;;;22.80;83.90;;;;;;2603506;54;19997;31
2022/05/14 13:17:05;;;;;;;;;;;22.90;82.60;;;;;;2702299;39;20581;31
2022/05/14 13:19:40;;;;;;;;;;;23.10;84.00;;;;;;2603068;54;19948;31
2022/05/14 13:22:29;;;;;;;;;;;23.20;82.50;;;;;;2621213;46;20918;31
2022/05/14 13:25:04;;;;;;;;;;;23.30;82.00;;;;;;2603789;54;19931;31
2022/05/14 13:27:41;;;;;;;;;;;23.30;81.40;;;;;;2702258;39;20433;31
2022/05/14 13:30:17;;;;;;;;;;;23.40;81.40;;;;;;2622556;46;20480;31
2022/05/14 13:32:52;;;;;;;;;;;23.50;80.70;;;;;;2622267;46;19935;31
2022/05/14 13:38:19;;;;;;;;;;;23.70;80.00;;;;;;2603878;54;19941;31
2022/05/14 13:40:58;;;;;;;;;;;23.60;80.50;;;;;;2610118;46;20483;31
2022/05/14 13:43:33;;;;;;;;;;;23.50;79.80;;;;;;2622107;46;19934;31
2022/05/14 13:46:09;;;;;;;;;;;23.40;79.60;;;;;;2603682;54;19989;31
2022/05/14 13:48:44;;;;;;;;;;;23.40;80.10;;;;;;2620751;46;19943;31
2022/05/14 13:51:25;;;;;;;;;;;23.50;80.50;;;;;;2603543;54;19942;31
2022/05/14 13:54:14;;;;;;;;;;;23.50;80.50;;;;;;2603589;54;19935;31
2022/05/14 13:56:49;;;;;;;;;;;23.60;80.10;;;;;;2603663;54;19950;31
2022/05/14 13:59:27;;;;;;;;;;;23.70;81.10;;;;;;2603786;54;19934;31
2022/05/14 14:02:07;;;;;;;;;;;23.70;80.50;;;;;;2602950;54;20501;31
2022/05/14 14:04:42;;;;;;;;;;;23.70;79.10;;;;;;2622018;46;19935;31
2022/05/14 14:07:17;;;;;;;;;;;23.60;79.80;;;;;;2622197;46;19935;31
2022/05/14 14:09:54;;;;;;;;;;;23.50;79.50;;;;;;2603817;54;19941;31
2022/05/14 14:12:29;;;;;;;;;;;23.40;78.90;;;;;;2603670;54;20764;31
2022/05/14 14:15:04;;;;;;;;;;;23.30;80.00;;;;;;2618508;46;19970;31
2022/05/14 14:17:39;;;;;;;;;;;23.30;81.10;;;;;;2622144;46;19942;31
2022/05/14 14:20:15;;;;;;;;;;;23.40;79.50;;;;;;2622201;46;20792;31
2022/05/14 14:23:02;;;;;;;;;;;23.40;82.20;;;;;;2603444;54;19991;31
2022/05/14 14:25:41;;;;;;;;;;;23.30;79.50;;;;;;2720489;39;20469;31
2022/05/14 14:28:19;;;;;;;;;;;23.40;80.30;;;;;;2602937;54;19935;31
2022/05/14 14:30:56;;;;;;;;;;;23.30;79.20;;;;;;2602604;54;20771;31
2022/05/14 14:33:33;;;;;;;;;;;23.40;79.10;;;;;;2603676;54;19943;31
2022/05/14 14:36:09;;;;;;;;;;;23.40;78.10;;;;;;2602661;54;19990;31
2022/05/14 14:38:48;;;;;;;;;;;23.40;80.80;;;;;;2603695;54;19936;31
2022/05/14 14:41:26;;;;;;;;;;;23.40;79.80;;;;;;2621679;47;19989;31
2022/05/14 14:44:02;;;;;;;;;;;23.40;79.20;;;;;;2602615;54;19996;31
2022/05/14 14:46:36;;;;;;;;;;;23.40;78.80;;;;;;2603421;54;20536;31
2022/05/14 14:49:13;;;;;;;;;;;23.40;79.30;;;;;;2622785;46;19942;31
2022/05/14 14:51:50;;;;;;;;;;;23.30;79.70;;;;;;2721104;39;20470;31
2022/05/14 14:54:30;;;;;;;;;;;23.30;79.60;;;;;;2604370;54;19934;31
2022/05/14 14:57:09;;;;;;;;;;;23.20;79.20;;;;;;2603439;54;19968;31
2022/05/14 14:59:44;;;;;;;;;;;23.10;80.40;;;;;;2603504;54;20370;31
2022/05/14 15:02:20;;;;;;;;;;;23.10;80.30;;;;;;2647517;39;21224;31
2022/05/14 15:04:58;;;;;;;;;;;23.00;80.50;;;;;;2603387;54;19942;31
2022/05/14 15:07:33;;;;;;;;;;;23.00;80.00;;;;;;2622916;46;20769;31
2022/05/14 15:10:08;;;;;;;;;;;23.00;81.10;;;;;;2622910;46;19941;31
2022/05/14 15:12:47;;;;;;;;;;;22.90;79.80;;;;;;2603474;54;20170;31
2022/05/14 15:15:23;;;;;;;;;;;22.90;80.50;;;;;;2622888;46;20766;31
2022/05/14 15:18:01;;;;;;;;;;;22.90;80.10;;;;;;2617553;46;19950;31
2022/05/14 15:20:40;;;;;;;;;;;22.90;80.30;;;;;;2702738;39;21388;31
2022/05/14 15:23:14;;;;;;;;;;;22.90;81.20;;;;;;2622578;46;19986;31
2022/05/14 15:25:49;;;;;;;;;;;22.90;80.70;;;;;;2604307;54;20655;31
2022/05/14 15:28:29;;;;;;;;;;;22.80;80.80;;;;;;2622780;46;19988;31
2022/05/14 15:31:04;;;;;;;;;;;22.70;80.70;;;;;;2604425;54;19989;31
2022/05/14 15:33:41;;;;;;;;;;;22.60;80.30;;;;;;2604094;54;20810;31
2022/05/14 15:36:17;;;;;;;;;;;22.50;79.80;;;;;;2615645;46;19943;31
2022/05/14 15:38:50;;;;;;;;;;;22.40;80.60;;;;;;2603298;54;20756;31
2022/05/14 15:41:24;;;;;;;;;;;22.30;81.20;;;;;;2622481;46;19935;31
2022/05/14 15:44:05;;;;;;;;;;;22.30;80.90;;;;;;2605175;46;19934;31
2022/05/14 15:46:42;;;;;;;;;;;22.30;82.00;;;;;;2604188;54;20759;31
2022/05/14 15:49:17;;;;;;;;;;;22.30;81.30;;;;;;2622848;46;19941;31
2022/05/14 15:51:54;;;;;;;;;;;22.30;80.30;;;;;;2618965;46;19942;31
2022/05/14 15:54:31;;;;;;;;;;;22.30;81.60;;;;;;2603290;54;20769;31
2022/05/14 15:57:06;;;;;;;;;;;22.20;81.00;;;;;;2622277;46;20014;31